TimePST,TemperatureF,Dew PointF,Humidity,Sea Level PressureIn,VisibilityMPH,Wind Direction,Wind SpeedMPH,Gust SpeedMPH,PrecipitationIn,Events,Conditions,WindDirDegrees,DateUTC
12:53 AM,48.9,41.0,74,29.72,10.0,SSW,11.5,-,N/A,,Mostly Cloudy,210,2012-11-20 08:53:00
1:53 AM,48.0,42.1,80,29.74,10.0,SSW,10.4,-,N/A,,Overcast,210,2012-11-20 09:53:00
2:53 AM,45.0,41.0,86,29.74,10.0,SSW,10.4,-,N/A,,Clear,210,2012-11-20 10:53:00
3:53 AM,45.0,41.0,86,29.74,10.0,SSW,9.2,-,N/A,,Clear,210,2012-11-20 11:53:00
4:53 AM,44.1,41.0,89,29.73,10.0,South,3.5,-,N/A,,Mostly Cloudy,180,2012-11-20 12:53:00
5:53 AM,43.0,41.0,93,29.72,10.0,North,4.6,-,N/A,,Mostly Cloudy,350,2012-11-20 13:53:00
6:34 AM,44.6,42.8,93,29.70,10.0,Calm,Calm,-,N/A,,Mostly Cloudy,0,2012-11-20 14:34:00
6:53 AM,44.1,42.1,93,29.72,10.0,Calm,Calm,-,N/A,,Overcast,0,2012-11-20 14:53:00
7:26 AM,44.6,42.8,93,29.69,10.0,West,3.5,-,N/A,,Overcast,260,2012-11-20 15:26:00
7:53 AM,46.0,44.1,93,29.70,10.0,SSW,4.6,-,0.00,Rain,Light Rain,200,2012-11-20 15:53:00
8:53 AM,48.0,46.0,93,29.69,10.0,South,8.1,-,0.00,,Overcast,170,2012-11-20 16:53:00
9:53 AM,48.0,46.0,93,29.67,10.0,South,12.7,-,N/A,,Partly Cloudy,170,2012-11-20 17:53:00
10:25 AM,48.2,46.4,93,29.65,10.0,SSE,13.8,-,N/A,,Mostly Cloudy,160,2012-11-20 18:25:00
10:53 AM,48.9,46.0,90,29.66,10.0,SSE,15.0,-,N/A,,Scattered Clouds,160,2012-11-20 18:53:00
11:53 AM,50.0,46.0,86,29.63,10.0,SSE,19.6,-,0.01,,Mostly Cloudy,150,2012-11-20 19:53:00
12:53 PM,50.0,46.0,86,29.63,10.0,South,19.6,25.3,N/A,,Overcast,170,2012-11-20 20:53:00
1:51 PM,51.8,46.4,82,29.62,10.0,South,23.0,-,N/A,,Overcast,170,2012-11-20 21:51:00
1:53 PM,51.1,46.0,83,29.62,10.0,South,20.7,-,N/A,,Overcast,170,2012-11-20 21:53:00
2:53 PM,51.1,46.0,83,29.63,10.0,South,17.3,-,N/A,,Scattered Clouds,170,2012-11-20 22:53:00
3:53 PM,51.1,45.0,80,29.63,10.0,South,17.3,-,N/A,,Partly Cloudy,180,2012-11-20 23:53:00
4:53 PM,50.0,41.0,71,29.67,10.0,South,17.3,-,N/A,,Scattered Clouds,190,2012-11-21 00:53:00
5:53 PM,46.0,37.0,71,29.68,10.0,SW,12.7,-,N/A,,Clear,230,2012-11-21 01:53:00
6:53 PM,44.1,37.0,76,29.70,10.0,WSW,13.8,-,N/A,,Clear,240,2012-11-21 02:53:00
7:53 PM,39.9,36.0,86,29.68,10.0,SSW,11.5,-,N/A,,Clear,210,2012-11-21 03:53:00
8:53 PM,39.0,36.0,89,29.69,10.0,SSW,10.4,-,N/A,,Partly Cloudy,210,2012-11-21 04:53:00
9:53 PM,41.0,37.0,86,29.70,10.0,South,8.1,-,N/A,,Overcast,190,2012-11-21 05:53:00
10:53 PM,39.0,35.1,86,29.70,10.0,Calm,Calm,-,N/A,,Mostly Cloudy,0,2012-11-21 06:53:00
11:53 PM,37.9,36.0,93,29.70,10.0,Calm,Calm,-,N/A,,Overcast,0,2012-11-21 07:53:00